LFPM 041730Z AUTO 16006KT 9999 -RA BKN022/// BKN035/// OVC050/// ///TCU 05/04 Q0987

Les avions qui composent notre flotte

Avion Robin DR400 2+2

L'avion école par excellence

F-GAVN
   * tarif promotionnel appliqué pendant la formation des élèves non brevetés


F-GAVN Planche